(°C)
30°
31°
32°
33°
34°
34°
34°
(°C)
36°
37°
38°
37°
37°
37°
35°
O
OSO
OSO
OSO
OSO
OSO
OSO
(km/h)
5-12
7-15
9-19
12-21
12-22
13-22
14-22
(mm)
0
0
0
0
0
0
0
(%)
0
1
1
2
1
1
0

Élévation du soleil

/ 53.5°
sun-icon
UV 9
06:24
20:30
Gibbeuse décroissante (247°)
00:00
12:01

METAR pour Winston-Salem (KINT)

Heure Conditions Température/
Point de rosée
Vent Visibilité Météo Nuages Pression Changement Brut
VFR 27.8°C / 21.7°C variable 3kt >10km - Clear 1016 - KINT 291354Z VRB03KT 10SM CLR 28/22 A3006 RMK AO2 SLP167 T02780217
VFR 25.6°C / 21.1°C 240º 4kt >10km - Clear 1016 - KINT 291254Z 24004KT 10SM CLR 26/21 A3005 RMK AO2 SLP164 T02560211
VFR 23.9°C / 20°C 270º 3kt >10km - Clear 1016 - KINT 291154Z 27003KT 10SM CLR 24/20 A3006 RMK AO2 SLP167 T02390200 10239 20228 53010
VFR 22.8°C / 19.4°C variable 0kt >10km - Clear 1016 - KINT 291054Z 00000KT 10SM CLR 23/19 A3005 RMK AO2 SLP163 T02280194
VFR 23.3°C / 19.4°C 230º 3kt >10km - Clear 1015 - KINT 290954Z AUTO 23003KT 10SM CLR 23/19 A3004 RMK AO2 SLP159 T02330194
VFR 23.9°C / 19.4°C variable 4kt >10km - Clear 1015 - KINT 290854Z AUTO VRB04KT 10SM CLR 24/19 A3003 RMK AO2 SLP156 T02390194 55003
VFR 23.3°C / 20°C 210º 4kt >10km - Clear 1015 - KINT 290754Z AUTO 21004KT 10SM CLR 23/20 A3003 RMK AO2 SLP154 T02330200
VFR 23.3°C / 19.4°C variable 0kt >10km - Clear 1015 - KINT 290654Z AUTO 00000KT 10SM CLR 23/19 A3003 RMK AO2 SLP154 T02330194
VFR 23.9°C / 20°C 170º 4kt >10km - Clear 1016 - KINT 290554Z AUTO 17004KT 10SM CLR 24/20 A3004 RMK AO2 SLP160 T02390200 10300 20233 58001
VFR 25°C / 20°C 140º 7kt >10km - Clear 1015 - KINT 290454Z AUTO 14007KT 10SM CLR 25/20 A3004 RMK AO2 SLP159 T02500200 403330217
VFR 26.7°C / 18.9°C variable 0kt >10km - Scattered Clouds 8500ft 1016 - KINT 290354Z AUTO 00000KT 10SM SCT085 27/19 A3005 RMK AO2 SLP161 T02670189
VFR 25.6°C / 18.9°C variable 0kt >10km - Scattered Clouds 8500ft 1016 - KINT 290254Z AUTO 00000KT 10SM SCT085 26/19 A3005 RMK AO2 SLP160 T02560189 53015
VFR 26.1°C / 20°C variable 0kt >10km - Clear 1015 - KINT 290154Z AUTO 00000KT 10SM CLR 26/20 A3003 RMK AO2 SLP155 T02610200
VFR 27.8°C / 20°C variable 0kt >10km - Clear 1014 - KINT 290054Z 00000KT 10SM CLR 28/20 A3001 RMK AO2 SLP149 T02780200
VFR 30°C / 19.4°C variable 0kt >10km - Clear 1014 - KINT 282354Z 00000KT 10SM CLR 30/19 A3000 RMK AO2 SLP146 T03000194 10333 20300 55003
VFR 31.7°C / 18.3°C 40º 3kt >10km - Clear 1014 - KINT 282254Z 04003KT 10SM CLR 32/18 A2999 RMK AO2 SLP142 T03170183
VFR 32.8°C / 18.9°C 30º 4kt >10km - Clear 1014 - KINT 282154Z 03004KT 10SM CLR 33/19 A2999 RMK AO2 SLP143 T03280189
VFR 32.8°C / 18.3°C 20º 6kt >10km - Clear 1014 - KINT 282054Z 02006KT 10SM CLR 33/18 A3001 RMK AO2 SLP148 T03280183 58007
VFR 32.8°C / 18.3°C 30º 7kt >10km - Clear 1015 - KINT 281954Z 03007KT 10SM CLR 33/18 A3002 RMK AO2 SLP151 T03280183
VFR 32.8°C / 18.9°C variable 5kt >10km - Clear 1015 - KINT 281854Z VRB05KT 10SM CLR 33/19 A3003 RMK AO2 SLP153 T03280189
VFR 32.2°C / 18.9°C variable 5kt >10km - Clear 1015 - KINT 281754Z VRB05KT 10SM CLR 32/19 A3003 RMK AO2 SLP155 T03220189 10328 20239 58006
VFR 31.7°C / 18.3°C 10º 3kt >10km - Clear 1015 - KINT 281654Z 01003KT 10SM CLR 32/18 A3004 RMK AO2 SLP158 T03170183
VFR 31.1°C / 19.4°C 20º 4kt >10km - Clear 1016 - KINT 281554Z 02004KT 10SM CLR 31/19 A3006 RMK AO2 SLP164 T03110194
VFR 30°C / 20.6°C 50º 7kt >10km - Clear 1016 - KINT 281454Z 05007KT 10SM CLR 30/21 A3005 RMK AO2 SLP161 T03000206 53000

VFR

27.8°C / 21.7°C

[Plus]
Vent variable 3kt
Visibilité >10km
Météo -
Nuages Clear
Pression 1016
Changement -
Brut KINT 291354Z VRB03KT 10SM CLR 28/22 A3006 RMK AO2 SLP167 T02780217

VFR

25.6°C / 21.1°C

[Plus]
Vent 240º 4kt
Visibilité >10km
Météo -
Nuages Clear
Pression 1016
Changement -
Brut KINT 291254Z 24004KT 10SM CLR 26/21 A3005 RMK AO2 SLP164 T02560211

VFR

23.9°C / 20°C

[Plus]
Vent 270º 3kt
Visibilité >10km
Météo -
Nuages Clear
Pression 1016
Changement -
Brut KINT 291154Z 27003KT 10SM CLR 24/20 A3006 RMK AO2 SLP167 T02390200 10239 20228 53010

VFR

22.8°C / 19.4°C

[Plus]
Vent variable 0kt
Visibilité >10km
Météo -
Nuages Clear
Pression 1016
Changement -
Brut KINT 291054Z 00000KT 10SM CLR 23/19 A3005 RMK AO2 SLP163 T02280194

VFR

23.3°C / 19.4°C

[Plus]
Vent 230º 3kt
Visibilité >10km
Météo -
Nuages Clear
Pression 1015
Changement -
Brut KINT 290954Z AUTO 23003KT 10SM CLR 23/19 A3004 RMK AO2 SLP159 T02330194

VFR

23.9°C / 19.4°C

[Plus]
Vent variable 4kt
Visibilité >10km
Météo -
Nuages Clear
Pression 1015
Changement -
Brut KINT 290854Z AUTO VRB04KT 10SM CLR 24/19 A3003 RMK AO2 SLP156 T02390194 55003

VFR

23.3°C / 20°C

[Plus]
Vent 210º 4kt
Visibilité >10km
Météo -
Nuages Clear
Pression 1015
Changement -
Brut KINT 290754Z AUTO 21004KT 10SM CLR 23/20 A3003 RMK AO2 SLP154 T02330200

VFR

23.3°C / 19.4°C

[Plus]
Vent variable 0kt
Visibilité >10km
Météo -
Nuages Clear
Pression 1015
Changement -
Brut KINT 290654Z AUTO 00000KT 10SM CLR 23/19 A3003 RMK AO2 SLP154 T02330194

VFR

23.9°C / 20°C

[Plus]
Vent 170º 4kt
Visibilité >10km
Météo -
Nuages Clear
Pression 1016
Changement -
Brut KINT 290554Z AUTO 17004KT 10SM CLR 24/20 A3004 RMK AO2 SLP160 T02390200 10300 20233 58001

VFR

25°C / 20°C

[Plus]
Vent 140º 7kt
Visibilité >10km
Météo -
Nuages Clear
Pression 1015
Changement -
Brut KINT 290454Z AUTO 14007KT 10SM CLR 25/20 A3004 RMK AO2 SLP159 T02500200 403330217

VFR

26.7°C / 18.9°C

[Plus]
Vent variable 0kt
Visibilité >10km
Météo -
Nuages Scattered Clouds 8500ft
Pression 1016
Changement -
Brut KINT 290354Z AUTO 00000KT 10SM SCT085 27/19 A3005 RMK AO2 SLP161 T02670189

VFR

25.6°C / 18.9°C

[Plus]
Vent variable 0kt
Visibilité >10km
Météo -
Nuages Scattered Clouds 8500ft
Pression 1016
Changement -
Brut KINT 290254Z AUTO 00000KT 10SM SCT085 26/19 A3005 RMK AO2 SLP160 T02560189 53015

VFR

26.1°C / 20°C

[Plus]
Vent variable 0kt
Visibilité >10km
Météo -
Nuages Clear
Pression 1015
Changement -
Brut KINT 290154Z AUTO 00000KT 10SM CLR 26/20 A3003 RMK AO2 SLP155 T02610200

VFR

27.8°C / 20°C

[Plus]
Vent variable 0kt
Visibilité >10km
Météo -
Nuages Clear
Pression 1014
Changement -
Brut KINT 290054Z 00000KT 10SM CLR 28/20 A3001 RMK AO2 SLP149 T02780200

VFR

30°C / 19.4°C

[Plus]
Vent variable 0kt
Visibilité >10km
Météo -
Nuages Clear
Pression 1014
Changement -
Brut KINT 282354Z 00000KT 10SM CLR 30/19 A3000 RMK AO2 SLP146 T03000194 10333 20300 55003

VFR

31.7°C / 18.3°C

[Plus]
Vent 40º 3kt
Visibilité >10km
Météo -
Nuages Clear
Pression 1014
Changement -
Brut KINT 282254Z 04003KT 10SM CLR 32/18 A2999 RMK AO2 SLP142 T03170183

VFR

32.8°C / 18.9°C

[Plus]
Vent 30º 4kt
Visibilité >10km
Météo -
Nuages Clear
Pression 1014
Changement -
Brut KINT 282154Z 03004KT 10SM CLR 33/19 A2999 RMK AO2 SLP143 T03280189

VFR

32.8°C / 18.3°C

[Plus]
Vent 20º 6kt
Visibilité >10km
Météo -
Nuages Clear
Pression 1014
Changement -
Brut KINT 282054Z 02006KT 10SM CLR 33/18 A3001 RMK AO2 SLP148 T03280183 58007

VFR

32.8°C / 18.3°C

[Plus]
Vent 30º 7kt
Visibilité >10km
Météo -
Nuages Clear
Pression 1015
Changement -
Brut KINT 281954Z 03007KT 10SM CLR 33/18 A3002 RMK AO2 SLP151 T03280183

VFR

32.8°C / 18.9°C

[Plus]
Vent variable 5kt
Visibilité >10km
Météo -
Nuages Clear
Pression 1015
Changement -
Brut KINT 281854Z VRB05KT 10SM CLR 33/19 A3003 RMK AO2 SLP153 T03280189

VFR

32.2°C / 18.9°C

[Plus]
Vent variable 5kt
Visibilité >10km
Météo -
Nuages Clear
Pression 1015
Changement -
Brut KINT 281754Z VRB05KT 10SM CLR 32/19 A3003 RMK AO2 SLP155 T03220189 10328 20239 58006

VFR

31.7°C / 18.3°C

[Plus]
Vent 10º 3kt
Visibilité >10km
Météo -
Nuages Clear
Pression 1015
Changement -
Brut KINT 281654Z 01003KT 10SM CLR 32/18 A3004 RMK AO2 SLP158 T03170183

VFR

31.1°C / 19.4°C

[Plus]
Vent 20º 4kt
Visibilité >10km
Météo -
Nuages Clear
Pression 1016
Changement -
Brut KINT 281554Z 02004KT 10SM CLR 31/19 A3006 RMK AO2 SLP164 T03110194

VFR

30°C / 20.6°C

[Plus]
Vent 50º 7kt
Visibilité >10km
Météo -
Nuages Clear
Pression 1016
Changement -
Brut KINT 281454Z 05007KT 10SM CLR 30/21 A3005 RMK AO2 SLP161 T03000206 53000

TAF pour Winston-Salem (KINT)

From till


From till Wind 240º 10kt. Visibility 10km or more. Few Clouds 6000ft. Scattered Clouds 25000ft.
Temporarly from till Wind 260º 7kt. Scattered Clouds 900ft.

Brut: KINT 291139Z 2912/3012 24010KT P6SM FEW060 SCT250 TEMPO 2912/2914 26007KT SCT009

rainNOW: Prévision immédiate de pluie pour Winston-Salem et ses environs (rayon de 25km)

0.0 mm
0.0 mm
0.0 mm
0.0 mm
0.0 mm
0.0 mm
0.0 mm
0.0 mm
0.0 mm
0.0 mm
0.0 mm
0.0 mm

Les images satellites pour Winston-Salem, États-Unis

Le marqueur de lieu est placé sur Winston-Salem. [Plus]

L'image satellite en temps réel combine la lumière visible pendant la journée et le rayonnement infrarouge pendant la nuit. La nuit, l'image n'est pas sombre car le rayonnement infrarouge permet de détecter les différences de température. Malheureusement, les nuages bas et le brouillard sont difficiles à distinguer des températures au sol et peuvent donc être presque invisibles pendant la nuit. Les images des satellites Météosat pour l'Europe sont mises à jour en temps réel toutes les 5 minutes. Les images GOES-16/GOES-17 (Amérique du Nord et du Sud) et Himawari (Asie) sont mises à jour toutes les 10 minutes.

Radar et prévision de précipitation à courte échéance pour Winston-Salem

Bruine
Légère
Modéré
Fort
Très fort
Grêle

Le marqueur de position est placé sur Winston-Salem. Cette animation montre le Radar des précipitations pour les dernières heures, ainsi qu'une 1h prévision. La bruine ou les légères chutes de neiges peuvent ne pas être détectées par le radar. L'intensité des précipitations est visible avec un code couleur allant du bleu clair au violet foncé.